createdAt,value
2023-02-04T00:00:04.175Z,0.28
2023-02-04T00:02:33.564Z,0.57
2023-02-04T00:05:01.308Z,0.20
2023-02-04T00:07:28.883Z,0.35
2023-02-04T00:09:56.459Z,0.50
2023-02-04T00:12:25.387Z,0.47
2023-02-04T00:14:53.219Z,0.60
2023-02-04T00:17:20.841Z,0.40
2023-02-04T00:19:48.468Z,0.40
2023-02-04T00:22:16.205Z,1.08
2023-02-04T00:24:48.436Z,0.60
2023-02-04T00:27:16.165Z,0.47
2023-02-04T00:29:45.105Z,0.40
2023-02-04T00:32:14.437Z,0.32
2023-02-04T00:34:42.175Z,0.50
2023-02-04T00:37:09.797Z,0.30
2023-02-04T00:39:38.905Z,0.80
2023-02-04T00:42:06.874Z,0.20
2023-02-04T00:44:37.037Z,0.70
2023-02-04T00:47:06.075Z,0.70
2023-02-04T00:49:34.227Z,0.40
2023-02-04T00:52:01.827Z,0.40
2023-02-04T00:54:29.461Z,0.68
2023-02-04T00:56:57.115Z,0.68
2023-02-04T00:59:24.663Z,1.05
2023-02-04T01:01:52.414Z,0.82
2023-02-04T01:04:21.383Z,0.60
2023-02-04T01:06:49.002Z,1.10
2023-02-04T01:09:16.570Z,0.52
2023-02-04T01:11:44.152Z,0.65
2023-02-04T01:14:11.764Z,1.15
2023-02-04T01:16:40.483Z,0.60
2023-02-04T01:19:08.061Z,0.65
2023-02-04T01:21:37.038Z,0.60
2023-02-04T01:24:04.726Z,0.73
2023-02-04T01:26:33.553Z,0.40
2023-02-04T01:29:01.147Z,0.50
2023-02-04T01:31:31.395Z,1.10
2023-02-04T01:33:59.021Z,0.43
2023-02-04T01:36:26.596Z,0.30
2023-02-04T01:38:55.580Z,0.63
2023-02-04T01:41:23.183Z,0.60
2023-02-04T01:43:50.891Z,0.60
2023-02-04T01:46:18.643Z,0.65
2023-02-04T01:48:47.470Z,0.77
2023-02-04T01:51:16.581Z,0.77
2023-02-04T01:53:44.280Z,0.65
2023-02-04T01:56:16.134Z,0.73
2023-02-04T01:58:43.782Z,0.85
2023-02-04T02:01:13.578Z,0.35
2023-02-04T02:03:41.267Z,0.63
2023-02-04T02:06:09.763Z,0.63
2023-02-04T02:08:37.588Z,0.75
2023-02-04T02:11:05.286Z,0.52
2023-02-04T02:13:34.409Z,0.38
2023-02-04T02:16:02.005Z,0.43
2023-02-04T02:18:29.669Z,0.80
2023-02-04T02:20:58.800Z,0.50
2023-02-04T02:23:30.601Z,0.85
2023-02-04T02:25:59.919Z,0.57
2023-02-04T02:28:27.534Z,0.65
2023-02-04T02:30:55.196Z,0.73
2023-02-04T02:33:22.907Z,0.85
2023-02-04T02:35:50.548Z,0.65
2023-02-04T02:38:18.855Z,0.38
2023-02-04T02:40:46.900Z,0.55
2023-02-04T02:43:16.688Z,1.25
2023-02-04T02:45:44.465Z,0.70
2023-02-04T02:48:12.614Z,1.23
2023-02-04T02:50:40.725Z,0.98
2023-02-04T02:53:11.684Z,0.65
2023-02-04T02:55:40.509Z,0.68
2023-02-04T02:58:11.423Z,0.40
2023-02-04T03:00:40.479Z,0.40
2023-02-04T03:03:11.770Z,0.73
2023-02-04T03:05:40.968Z,1.48
2023-02-04T03:08:10.055Z,1.38
2023-02-04T03:10:37.979Z,0.88
2023-02-04T03:13:06.896Z,1.10
2023-02-04T03:15:35.037Z,0.60
2023-02-04T03:18:04.293Z,0.45
2023-02-04T03:20:32.772Z,0.43
2023-02-04T03:23:00.728Z,0.95
2023-02-04T03:25:28.823Z,1.33
2023-02-04T03:27:58.828Z,0.63
2023-02-04T03:30:27.298Z,0.75
2023-02-04T03:32:55.089Z,0.50
2023-02-04T03:35:24.053Z,0.77
2023-02-04T03:37:51.635Z,0.93
2023-02-04T03:40:19.368Z,0.63
2023-02-04T03:42:46.968Z,1.48
2023-02-04T03:45:14.589Z,1.13
2023-02-04T03:47:42.162Z,0.70
2023-02-04T03:50:11.203Z,0.90
2023-02-04T03:52:40.135Z,0.68
2023-02-04T03:55:08.210Z,0.68
2023-02-04T03:57:35.789Z,0.43
2023-02-04T04:00:04.073Z,0.57
2023-02-04T04:02:39.393Z,1.42
2023-02-04T04:05:07.460Z,1.10
2023-02-04T04:07:35.121Z,1.13
2023-02-04T04:10:04.553Z,0.77
2023-02-04T04:12:32.523Z,0.95
2023-02-04T04:15:00.187Z,0.60
2023-02-04T04:17:27.739Z,0.88
2023-02-04T04:19:55.379Z,1.17
2023-02-04T04:22:23.082Z,0.85
2023-02-04T04:24:50.661Z,0.77
2023-02-04T04:27:19.567Z,0.98
2023-02-04T04:29:47.144Z,0.35
2023-02-04T04:32:14.713Z,0.70
2023-02-04T04:34:42.309Z,0.93
2023-02-04T04:37:09.917Z,0.85
2023-02-04T04:39:37.479Z,1.13
2023-02-04T04:42:05.105Z,1.48
2023-02-04T04:44:34.052Z,0.73
2023-02-04T04:47:01.754Z,1.40
2023-02-04T04:49:29.353Z,1.00
2023-02-04T04:51:56.959Z,0.85
2023-02-04T04:54:24.530Z,1.20
2023-02-04T04:56:52.122Z,1.02
2023-02-04T04:59:19.763Z,1.13
2023-02-04T05:01:48.709Z,0.73
2023-02-04T05:04:16.281Z,1.55
2023-02-04T05:06:43.857Z,0.85
2023-02-04T05:09:11.598Z,1.20
2023-02-04T05:11:39.236Z,0.55
2023-02-04T05:14:06.777Z,1.27
2023-02-04T05:16:34.452Z,1.40
2023-02-04T05:19:03.601Z,1.05
2023-02-04T05:21:31.181Z,0.90
2023-02-04T05:23:58.762Z,1.38
2023-02-04T05:26:30.480Z,0.50
2023-02-04T05:29:00.290Z,1.73
2023-02-04T05:31:27.958Z,1.17
2023-02-04T05:33:55.578Z,1.15
2023-02-04T05:36:24.586Z,0.80
2023-02-04T05:38:52.166Z,1.05
2023-02-04T05:41:19.755Z,0.80
2023-02-04T05:43:47.323Z,0.75
2023-02-04T05:46:14.916Z,0.98
2023-02-04T05:48:42.486Z,1.00
2023-02-04T05:51:10.050Z,0.57
2023-02-04T05:53:38.998Z,0.93
2023-02-04T05:56:06.774Z,1.50
2023-02-04T05:58:34.349Z,1.52
2023-02-04T06:01:02.286Z,0.68
2023-02-04T06:03:30.510Z,0.88
2023-02-04T06:05:58.514Z,1.52
2023-02-04T06:08:26.068Z,1.00
2023-02-04T06:10:55.031Z,0.65
2023-02-04T06:13:22.613Z,0.68
2023-02-04T06:15:50.534Z,1.02
2023-02-04T06:18:18.117Z,1.10
2023-02-04T06:20:45.687Z,0.93
2023-02-04T06:23:13.374Z,1.02
2023-02-04T06:25:40.993Z,1.05
2023-02-04T06:28:09.964Z,1.17
2023-02-04T06:30:38.261Z,1.25
2023-02-04T06:33:05.814Z,0.50
2023-02-04T06:35:33.372Z,0.82
2023-02-04T06:38:00.988Z,1.08
2023-02-04T06:40:28.530Z,1.75
2023-02-04T06:42:56.066Z,0.95
2023-02-04T06:45:25.042Z,0.82
2023-02-04T06:47:52.626Z,1.33
2023-02-04T06:50:20.259Z,1.30
2023-02-04T06:52:47.796Z,1.27
2023-02-04T06:55:15.379Z,0.90
2023-02-04T06:57:43.174Z,1.17
2023-02-04T07:00:11.752Z,1.05
2023-02-04T07:02:40.641Z,1.75
2023-02-04T07:05:08.252Z,1.27
2023-02-04T07:07:35.888Z,0.68
2023-02-04T07:10:03.470Z,1.15
2023-02-04T07:12:31.029Z,0.60
2023-02-04T07:14:58.632Z,1.77
2023-02-04T07:17:26.218Z,0.73
2023-02-04T07:19:55.195Z,1.02
2023-02-04T07:22:22.769Z,1.05
2023-02-04T07:24:50.365Z,0.65
2023-02-04T07:27:17.937Z,0.60
2023-02-04T07:29:45.546Z,1.63
2023-02-04T07:32:13.246Z,0.77
2023-02-04T07:34:40.816Z,1.23
2023-02-04T07:37:09.711Z,1.05
2023-02-04T07:39:37.301Z,1.55
2023-02-04T07:42:04.897Z,0.90
2023-02-04T07:44:42.134Z,1.23
2023-02-04T07:47:09.698Z,1.20
2023-02-04T07:49:37.245Z,0.93
2023-02-04T07:52:04.870Z,0.45
2023-02-04T07:54:33.793Z,1.75
2023-02-04T07:57:01.372Z,1.65
2023-02-04T07:59:28.979Z,1.02
2023-02-04T08:01:56.615Z,0.50
2023-02-04T08:04:24.269Z,1.38
2023-02-04T08:06:51.803Z,1.08
2023-02-04T08:09:19.375Z,1.17
2023-02-04T08:11:48.302Z,1.73
2023-02-04T08:14:15.918Z,1.25
2023-02-04T08:16:43.517Z,0.95
2023-02-04T08:19:11.098Z,0.95
2023-02-04T08:21:38.674Z,1.05
2023-02-04T08:24:06.578Z,0.60
2023-02-04T08:26:34.166Z,0.93
2023-02-04T08:29:03.508Z,1.55
2023-02-04T08:31:31.867Z,1.45
2023-02-04T08:33:59.491Z,1.08
2023-02-04T08:36:27.074Z,1.73
2023-02-04T08:38:54.624Z,1.27
2023-02-04T08:41:22.185Z,1.75
2023-02-04T08:43:49.757Z,1.65
2023-02-04T08:46:18.809Z,1.92
2023-02-04T08:48:46.444Z,2.10
2023-02-04T08:51:13.990Z,2.03
2023-02-04T08:53:41.605Z,1.77
2023-02-04T08:56:10.444Z,2.42
2023-02-04T08:58:39.622Z,2.38
2023-02-04T09:01:07.297Z,2.30
2023-02-04T09:03:36.239Z,2.20
2023-02-04T09:06:03.930Z,1.80
2023-02-04T09:08:31.522Z,2.90
2023-02-04T09:10:59.090Z,2.90
2023-02-04T09:13:26.689Z,2.67
2023-02-04T09:15:54.421Z,2.72
2023-02-04T09:18:22.779Z,2.63
2023-02-04T09:20:51.786Z,2.97
2023-02-04T09:23:19.797Z,2.83
2023-02-04T09:25:47.550Z,3.38
2023-02-04T09:28:17.085Z,3.25
2023-02-04T09:30:45.657Z,3.20
2023-02-04T09:33:13.922Z,3.33
2023-02-04T09:35:41.804Z,3.83
2023-02-04T09:38:10.872Z,3.65
2023-02-04T09:40:39.236Z,3.60
2023-02-04T09:43:06.819Z,3.53
2023-02-04T09:45:34.928Z,3.70
2023-02-04T09:48:04.026Z,3.75
2023-02-04T09:50:33.283Z,4.32
2023-02-04T09:53:02.891Z,4.00
2023-02-04T09:55:33.893Z,4.32
2023-02-04T09:58:01.662Z,4.45
2023-02-04T10:00:30.703Z,4.28
2023-02-04T10:02:59.999Z,3.95
2023-02-04T10:05:29.602Z,4.53
2023-02-04T10:07:57.591Z,4.30
2023-02-04T10:10:27.179Z,4.47
2023-02-04T10:12:57.126Z,4.45
2023-02-04T10:15:24.768Z,4.13
2023-02-04T10:17:53.301Z,4.43
2023-02-04T10:20:21.775Z,5.10
2023-02-04T10:22:50.414Z,4.45
2023-02-04T10:25:19.293Z,4.80
2023-02-04T10:27:51.114Z,4.38
2023-02-04T10:30:23.542Z,4.88
2023-02-04T10:32:51.403Z,4.25
2023-02-04T10:35:19.948Z,4.80
2023-02-04T10:37:49.157Z,4.90
2023-02-04T10:40:27.182Z,4.60
2023-02-04T10:42:55.345Z,4.32
2023-02-04T10:45:24.948Z,5.32
2023-02-04T10:47:53.011Z,4.65
2023-02-04T10:50:21.337Z,4.68
2023-02-04T10:52:50.449Z,4.57
2023-02-04T10:55:19.271Z,4.75
2023-02-04T10:57:48.657Z,4.03
2023-02-04T11:00:17.913Z,3.97
2023-02-04T11:02:49.430Z,3.67
2023-02-04T11:05:17.893Z,4.28
2023-02-04T11:07:45.925Z,3.70
2023-02-04T11:10:15.043Z,3.95
2023-02-04T11:12:43.958Z,3.95
2023-02-04T11:15:29.979Z,3.75
2023-02-04T11:18:03.351Z,3.88
2023-02-04T11:20:32.602Z,3.60
2023-02-04T11:23:16.559Z,3.72
2023-02-04T11:25:44.149Z,3.55
2023-02-04T11:28:15.188Z,3.90
2023-02-04T11:30:42.892Z,3.45
2023-02-04T11:33:25.061Z,3.58
2023-02-04T11:36:02.789Z,3.75
2023-02-04T11:38:31.686Z,3.20
2023-02-04T11:40:59.832Z,3.75
2023-02-04T11:43:27.576Z,3.50
2023-02-04T11:46:02.292Z,3.15
2023-02-04T11:48:31.354Z,3.65
2023-02-04T11:50:59.827Z,2.60
2023-02-04T11:53:29.818Z,2.53
2023-02-04T11:55:57.435Z,2.28
2023-02-04T11:58:26.210Z,2.17
2023-02-04T12:00:54.248Z,1.88
2023-02-04T12:03:23.298Z,2.45
2023-02-04T12:05:54.897Z,1.90
2023-02-04T12:08:27.020Z,2.15
2023-02-04T12:11:01.230Z,2.00
2023-02-04T12:13:30.632Z,1.90
2023-02-04T12:16:02.584Z,1.67
2023-02-04T12:18:30.386Z,1.80
2023-02-04T12:20:59.993Z,2.20
2023-02-04T12:23:29.389Z,2.35
2023-02-04T12:25:57.322Z,1.75
2023-02-04T12:28:25.488Z,2.40
2023-02-04T12:30:53.103Z,1.95
2023-02-04T12:33:20.740Z,2.50
2023-02-04T12:35:48.306Z,2.55
2023-02-04T12:38:18.370Z,2.20
2023-02-04T12:40:46.951Z,2.00
2023-02-04T12:43:14.523Z,2.55
2023-02-04T12:45:45.638Z,2.50
2023-02-04T12:48:13.882Z,2.13
2023-02-04T12:50:41.596Z,2.05
2023-02-04T12:53:09.248Z,2.65
2023-02-04T12:55:38.168Z,2.17
2023-02-04T12:58:05.821Z,2.33
2023-02-04T13:00:33.480Z,1.95
2023-02-04T13:03:01.102Z,2.17
2023-02-04T13:05:28.702Z,2.13
2023-02-04T13:07:56.294Z,1.98
2023-02-04T13:10:24.296Z,1.95
2023-02-04T13:12:53.227Z,1.88
2023-02-04T13:15:20.803Z,1.75
2023-02-04T13:17:48.453Z,1.88
2023-02-04T13:20:16.032Z,2.33
2023-02-04T13:22:43.631Z,1.40
2023-02-04T13:25:12.128Z,1.00
2023-02-04T13:27:39.834Z,1.20
2023-02-04T13:30:09.989Z,1.48
2023-02-04T13:32:37.559Z,1.60
2023-02-04T13:35:05.309Z,1.40
2023-02-04T13:37:32.930Z,0.98
2023-02-04T13:40:00.509Z,1.35
2023-02-04T13:42:28.204Z,0.98
2023-02-04T13:44:55.753Z,0.93
2023-02-04T13:47:24.686Z,1.40
2023-02-04T13:49:52.300Z,1.67
2023-02-04T13:52:20.172Z,1.75
2023-02-04T13:54:47.736Z,1.13
2023-02-04T13:57:16.990Z,1.25
2023-02-04T13:59:44.576Z,1.48
2023-02-04T14:02:12.167Z,1.98
2023-02-04T14:04:43.859Z,1.35
2023-02-04T14:07:11.522Z,1.38
2023-02-04T14:09:39.083Z,1.33
2023-02-04T14:12:06.952Z,1.45
2023-02-04T14:14:34.500Z,1.55
2023-02-04T14:17:02.122Z,1.58
2023-02-04T14:19:29.744Z,1.55
2023-02-04T14:21:58.668Z,1.60
2023-02-04T14:24:26.269Z,1.40
2023-02-04T14:26:53.902Z,1.67
2023-02-04T14:29:21.470Z,1.48
2023-02-04T14:31:49.061Z,1.65
2023-02-04T14:34:16.764Z,1.67
2023-02-04T14:36:44.350Z,2.03
2023-02-04T14:39:13.286Z,1.88
2023-02-04T14:41:40.927Z,1.90
2023-02-04T14:44:08.515Z,1.80
2023-02-04T14:46:36.214Z,1.33
2023-02-04T14:49:03.851Z,1.80
2023-02-04T14:51:31.381Z,1.75
2023-02-04T14:53:58.948Z,1.52
2023-02-04T14:56:27.833Z,1.50
2023-02-04T14:58:55.388Z,1.80
2023-02-04T15:01:22.969Z,1.60
2023-02-04T15:03:50.861Z,1.50
2023-02-04T15:06:18.492Z,1.88
2023-02-04T15:08:46.148Z,1.50
2023-02-04T15:11:13.733Z,1.60
2023-02-04T15:13:42.632Z,1.70
2023-02-04T15:16:12.269Z,1.50
2023-02-04T15:18:40.030Z,1.67
2023-02-04T15:21:07.605Z,1.70
2023-02-04T15:23:35.161Z,1.67
2023-02-04T15:26:02.766Z,1.80
2023-02-04T15:28:31.271Z,1.60
2023-02-04T15:31:00.317Z,1.77
2023-02-04T15:33:27.957Z,1.70
2023-02-04T15:35:55.524Z,1.77
2023-02-04T15:38:23.166Z,1.85
2023-02-04T15:40:50.741Z,1.65
2023-02-04T15:43:18.382Z,1.58
2023-02-04T15:45:45.949Z,1.67
2023-02-04T15:48:15.509Z,1.70
2023-02-04T15:50:43.294Z,1.60
2023-02-04T15:53:10.883Z,1.70
2023-02-04T15:55:38.471Z,1.65
2023-02-04T15:58:06.034Z,1.38
2023-02-04T16:00:33.950Z,1.60
2023-02-04T16:03:01.729Z,1.20
2023-02-04T16:05:30.753Z,1.42
2023-02-04T16:07:58.350Z,1.25
2023-02-04T16:10:25.949Z,1.45
2023-02-04T16:12:54.953Z,1.52
2023-02-04T16:15:22.761Z,1.33
2023-02-04T16:17:50.994Z,1.40
2023-02-04T16:20:19.090Z,1.25
2023-02-04T16:22:48.036Z,1.42
2023-02-04T16:25:15.630Z,1.40
2023-02-04T16:27:43.222Z,1.50
2023-02-04T16:30:12.126Z,1.30
2023-02-04T16:32:39.674Z,1.63
2023-02-04T16:35:07.566Z,1.45
2023-02-04T16:37:35.577Z,1.10
2023-02-04T16:40:04.732Z,1.40
2023-02-04T16:42:32.497Z,1.00
2023-02-04T16:45:00.154Z,1.65
2023-02-04T16:47:27.767Z,1.48
2023-02-04T16:49:59.042Z,1.52
2023-02-04T16:52:26.631Z,1.50
2023-02-04T16:54:54.279Z,1.17
2023-02-04T16:57:23.162Z,1.60
2023-02-04T16:59:50.898Z,1.25
2023-02-04T17:02:18.451Z,1.30
2023-02-04T17:04:46.015Z,1.30
2023-02-04T17:07:13.592Z,1.40
2023-02-04T17:09:42.246Z,1.77
2023-02-04T17:12:09.836Z,1.50
2023-02-04T17:14:41.017Z,1.40
2023-02-04T17:17:09.001Z,1.70
2023-02-04T17:19:36.556Z,1.60
2023-02-04T17:22:04.157Z,1.70
2023-02-04T17:24:31.748Z,1.70
2023-02-04T17:27:00.489Z,2.05
2023-02-04T17:29:28.167Z,1.95
2023-02-04T17:31:57.180Z,2.03
2023-02-04T17:34:24.813Z,2.08
2023-02-04T17:36:52.494Z,1.98
2023-02-04T17:39:20.066Z,2.50
2023-02-04T17:41:47.638Z,1.92
2023-02-04T17:44:19.881Z,3.70
2023-02-04T17:46:47.490Z,3.88
2023-02-04T17:49:16.486Z,3.28
2023-02-04T17:51:44.111Z,3.10
2023-02-04T17:54:12.728Z,3.45
2023-02-04T17:56:40.344Z,3.55
2023-02-04T17:59:10.581Z,4.25
2023-02-04T18:01:38.616Z,3.97
2023-02-04T18:04:07.612Z,3.90
2023-02-04T18:06:38.234Z,3.67
2023-02-04T18:09:06.695Z,3.75
2023-02-04T18:11:37.675Z,3.80
2023-02-04T18:14:11.263Z,4.00
2023-02-04T18:16:40.708Z,3.55
2023-02-04T18:19:15.879Z,3.90
2023-02-04T18:21:44.859Z,3.40
2023-02-04T18:24:17.309Z,3.40
2023-02-04T18:26:45.957Z,3.75
2023-02-04T18:29:20.261Z,3.60
2023-02-04T18:31:50.590Z,3.70
2023-02-04T18:34:21.171Z,3.30
2023-02-04T18:36:50.808Z,3.30
2023-02-04T18:39:19.288Z,3.17
2023-02-04T18:41:48.865Z,2.80
2023-02-04T18:44:26.069Z,2.90
2023-02-04T18:46:54.422Z,2.92
2023-02-04T18:49:25.509Z,2.70
2023-02-04T18:51:54.768Z,3.10
2023-02-04T18:54:29.565Z,2.42
2023-02-04T18:57:01.540Z,3.33
2023-02-04T18:59:29.151Z,3.15
2023-02-04T19:01:57.124Z,3.25
2023-02-04T19:04:26.394Z,3.28
2023-02-04T19:06:56.584Z,2.92
2023-02-04T19:09:25.166Z,3.08
2023-02-04T19:11:53.647Z,2.85
2023-02-04T19:14:25.404Z,3.05
2023-02-04T19:16:54.557Z,2.78
2023-02-04T19:19:43.011Z,3.10
2023-02-04T19:22:19.995Z,2.90
2023-02-04T19:24:48.103Z,2.80
2023-02-04T19:27:24.823Z,3.00
2023-02-04T19:29:54.455Z,3.15
2023-02-04T19:32:27.383Z,3.25
2023-02-04T19:34:55.463Z,3.17
2023-02-04T19:37:26.614Z,3.30
2023-02-04T19:39:55.016Z,3.17
2023-02-04T19:42:30.522Z,2.90
2023-02-04T19:44:59.348Z,2.97
2023-02-04T19:47:28.208Z,2.15
2023-02-04T19:50:02.007Z,2.97
2023-02-04T19:52:37.805Z,2.58
2023-02-04T19:55:26.153Z,2.97
2023-02-04T19:57:55.117Z,2.92
2023-02-04T20:00:37.876Z,2.00
2023-02-04T20:03:13.083Z,1.27
2023-02-04T20:05:42.558Z,1.52
2023-02-04T20:08:31.819Z,1.17
2023-02-04T20:10:59.679Z,1.48
2023-02-04T20:13:28.121Z,1.17
2023-02-04T20:15:57.190Z,0.95
2023-02-04T20:18:26.391Z,1.67
2023-02-04T20:20:54.891Z,1.45
2023-02-04T20:23:26.761Z,1.00
2023-02-04T20:25:54.362Z,1.20
2023-02-04T20:28:39.920Z,1.02
2023-02-04T20:31:24.676Z,1.10
2023-02-04T20:33:52.926Z,1.05
2023-02-04T20:36:45.881Z,1.48
2023-02-04T20:39:33.700Z,1.05
2023-02-04T20:42:17.364Z,1.52
2023-02-04T20:44:46.949Z,0.60
2023-02-04T20:47:17.457Z,0.70
2023-02-04T20:49:47.490Z,0.68
2023-02-04T20:52:29.898Z,1.80
2023-02-04T20:54:58.844Z,1.58
2023-02-04T20:57:26.388Z,1.33
2023-02-04T20:59:53.963Z,0.68
2023-02-04T21:02:21.795Z,0.82
2023-02-04T21:04:53.701Z,1.25
2023-02-04T21:07:22.130Z,1.10
2023-02-04T21:09:51.595Z,1.23
2023-02-04T21:12:21.530Z,1.17
2023-02-04T21:14:50.256Z,0.85
2023-02-04T21:17:18.036Z,1.30
2023-02-04T21:19:45.598Z,1.35
2023-02-04T21:22:13.163Z,1.60
2023-02-04T21:24:42.082Z,0.98
2023-02-04T21:27:09.689Z,1.88
2023-02-04T21:29:38.609Z,0.93
2023-02-04T21:32:06.196Z,1.20
2023-02-04T21:34:33.780Z,1.48
2023-02-04T21:37:01.786Z,1.08
2023-02-04T21:39:29.384Z,1.55
2023-02-04T21:42:10.047Z,1.05
2023-02-04T21:44:39.408Z,1.27
2023-02-04T21:47:07.028Z,1.15
2023-02-04T21:49:34.665Z,1.30
2023-02-04T21:52:02.275Z,1.38
2023-02-04T21:54:29.846Z,1.20
2023-02-04T21:56:57.393Z,1.33
2023-02-04T21:59:25.177Z,0.77
2023-02-04T22:01:54.088Z,0.90
2023-02-04T22:04:21.697Z,1.05
2023-02-04T22:06:49.269Z,1.48
2023-02-04T22:09:18.027Z,0.50
2023-02-04T22:11:48.256Z,1.48
2023-02-04T22:14:33.386Z,1.05
2023-02-04T22:17:02.304Z,1.58
2023-02-04T22:19:29.865Z,0.90
2023-02-04T22:21:57.460Z,1.55
2023-02-04T22:24:25.007Z,1.17
2023-02-04T22:26:53.471Z,1.30
2023-02-04T22:29:24.928Z,1.58
2023-02-04T22:31:53.020Z,1.90
2023-02-04T22:34:22.221Z,1.52
2023-02-04T22:36:49.761Z,1.58
2023-02-04T22:39:17.316Z,1.08
2023-02-04T22:41:44.850Z,1.83
2023-02-04T22:44:12.461Z,1.17
2023-02-04T22:46:40.109Z,1.60
2023-02-04T22:49:07.740Z,0.82
2023-02-04T22:51:36.654Z,0.65
2023-02-04T22:54:04.328Z,0.95
2023-02-04T22:56:32.178Z,1.23
2023-02-04T22:58:59.721Z,0.60
2023-02-04T23:01:27.310Z,0.98
2023-02-04T23:03:54.922Z,0.95
2023-02-04T23:06:22.833Z,0.60
2023-02-04T23:08:51.816Z,0.73
2023-02-04T23:11:19.371Z,0.70
2023-02-04T23:13:47.035Z,1.00
2023-02-04T23:16:14.634Z,1.05
2023-02-04T23:18:42.261Z,1.85
2023-02-04T23:21:10.787Z,1.52
2023-02-04T23:23:38.557Z,1.15
2023-02-04T23:26:07.642Z,1.17
2023-02-04T23:28:35.223Z,1.25
2023-02-04T23:31:02.822Z,1.13
2023-02-04T23:33:30.407Z,1.85
2023-02-04T23:35:58.247Z,1.65
2023-02-04T23:38:25.960Z,0.77
2023-02-04T23:40:53.554Z,1.70
2023-02-04T23:43:22.472Z,1.08
2023-02-04T23:45:50.659Z,1.38
2023-02-04T23:48:18.202Z,0.88
2023-02-04T23:50:47.916Z,0.70
2023-02-04T23:53:15.471Z,0.88
2023-02-04T23:55:43.067Z,1.13
2023-02-04T23:58:10.634Z,1.00
